Portada
METAR-TAF:

METAR-TAF

Aeroports :

Norwood Memorial Airport

Norwood, Massachusetts, Estats Units d'Amèrica

latitud: 42-11-27N, longitud: 071-10-26W, altitud: 15 m

Observació

L'informe es va fer fa 46 minuts, a les 22:53 UTC
Vent 5 kt del Nord/Nord-Est
Temperatura 23°C
Humitat 69%
Pressió 1021 hPa
Visibilitat: 16.1 km
Escasses núvols a una alçada de 7000 ft
Cel cobert a una alçada de 11000 ft

METAR: KOWD 072253Z 02005KT 10SM FEW070 OVC110 23/17 A3014 RMK AO2 SLP206 T02330167

Hora: 19:39 (23:39 UTC)


TAF: manca

Observacions i pronòstics meteorològics de més de 4000 aeroports (METAR i TAF).

Les estacions disponibles són els punts grocs i vermells al mapa.

Posi el ratolí al punt desitjat per veure el nom de l'estació.

Feu clic per veure les observacions i els pronòstics meteorològics.

Per canviar el mapa: feu clic els botons verds amb una creu de color negre per apropar; al botó verd amb un guió per allunyar la imatge; o en les fletxes verdes per a mapes adjacents.


METAR-TAF: